NCAR-RAP Real-Time Weather Data

Output produced by METARs form (12 August 2020  18:39 UTC)
found at http://weather.rap.ucar.edu/surface/
 
KCLT 121752Z 12006KT 10SM SCT042TCU BKN065 BKN160 BKN250 31/20 A3002 RMK AO2 LTG DSNT SW-NW SLP154 TCU ALQDS T03110200 10328 20256 58011
KCLT 121652Z 13009KT 10SM SCT039TCU SCT070 BKN160 BKN250 32/21 A3003 RMK AO2 LTG DSNT W SLP160 TCU SW-NW T03220206
KCLT 121552Z 10010KT 10SM SCT028 BKN060 BKN090 BKN250 31/22 A3005 RMK AO2 SLP164 T03110217
KCLT 121452Z VRB06KT 10SM FEW023 SCT055 BKN150 BKN250 30/22 A3005 RMK AO2 SLP165 T03000222 53001
KCLT 121352Z 08007KT 050V110 10SM FEW060 BKN150 BKN250 28/22 A3004 RMK AO2 SLP164 T02780222
KCLT 121252Z 01004KT 10SM FEW065 BKN140 BKN250 26/22 A3005 RMK AO2 SLP165 T02610217
KCLT 121152Z 01004KT 10SM FEW065 BKN120 BKN250 26/21 A3005 RMK AO2 SLP165 T02560211 10256 20233 53017
KCLT 121052Z 00000KT 10SM BKN110 BKN250 24/22 A3003 RMK AO2 SLP158 T02390217
KCLT 120952Z 00000KT 10SM FEW040 FEW100 BKN160 BKN250 24/22 A2999 RMK AO2 SLP146 T02390217
KCLT 120852Z 00000KT 10SM FEW040 SCT130 BKN250 24/21 A3000 RMK AO2 LTG DSNT SW SLP147 T02390211 58003
KCLT 120752Z 31005KT 10SM SCT047 BKN060 24/22 A3000 RMK AO2 LTG DSNT W SLP150 CB DSNT W MOV NRLY STNRY T02390217
KCLT 120652Z 00000KT 10SM FEW050 SCT070 SCT100 24/22 A3000 RMK AO2 LTG DSNT W AND NW SLP149 CB DSNT NW T02440217
KCLT 120552Z 00000KT 10SM FEW049 BKN100 26/22 A3001 RMK AO2 LTG DSNT W SLP150 T02560222 10278 20239 58002
KCLT 120452Z 14005KT 10SM SCT049 BKN065 26/22 A3002 RMK AO2 SLP154 T02610217 403280228
KCLT 120352Z 17003KT 10SM FEW100 FEW250 26/22 A3002 RMK AO2 SLP154 T02610217
KCLT 120252Z 17003KT 10SM FEW090 SCT250 26/21 A3001 RMK AO2 SLP154 T02610211 52014
KCLT 120152Z 00000KT 10SM SCT250 24/21 A3000 RMK AO2 SLP151 T02440211
KCLT 120052Z 00000KT 10SM FEW045 FEW180 BKN250 25/22 A2998 RMK AO2 SLP143 CB DSNT N TCU DSNT N T02500217
KCLT 112352Z 00000KT 10SM FEW050 FEW180 BKN250 27/21 A2997 RMK AO2 SLP139 CB DSNT NE AND S T02720211 10328 20272 55000
KCLT 112252Z 20004KT 10SM FEW045 FEW150 BKN250 28/21 A2996 RMK AO2 SLP135 CB DSNT NE TCU DSNT E AND S T02830206
KCLT 112152Z 18003KT 10SM FEW045 FEW075 SCT150 BKN250 29/20 A2996 RMK AO2 LTG DSNT S TSE04 SLP136 TS MOV S CB DSNT SE-S TCU DSNT E T02890200
KCLT 112105Z 17007KT 10SM SCT045 SCT070 BKN140 BKN250 30/19 A2997 RMK AO2 LTG DSNT SE AND S TSE04 TS MOV S CB DSNT SE-S AND W TCU DSNT N-NE AND S T03000194
KCLT 112052Z COR 16008KT 10SM TS SCT045CB SCT070 BKN140 BKN250 30/19 A2997 RMK AO2 LTG DSNT SE AND S SLP138 OCNL LTGICCG SE-S TS SE-S MOV S CB DSNT W TCU DSNT N-NE AND S T03000194 56013
KCLT 111952Z 23004KT 10SM TS SCT045CB SCT140 SCT250 32/19 A2997 RMK AO2 LTG DSNT E AND W TSB41 SLP139 OCNL LTGICCG E TS E-SE MOV S CB DSNT W-NW T03220189
KCLT 111942Z VRB04KT 10SM TS FEW040CB SCT140 SCT250 32/20 A2997 RMK AO2 LTG DSNT E AND SW AND W TSB41 OCNL LTGICCG E TS E-SE MOV S CB DSNT W-NW T03220200
KCLT 111852Z 00000KT 10SM FEW040TCU SCT140 BKN250 32/21 A2999 RMK AO2 LTG DSNT NE SLP145 CB DSNT W-NW TCU N-E AND DSNT SW-NW T03220211
KCLT 111752Z VRB03KT 10SM FEW035 SCT140 SCT250 31/22 A3001 RMK AO2 SLP151 TCU DSNT NW T03060217 10311 20228 58011
KCLT 111652Z 28005KT 10SM FEW030 BKN140 BKN250 29/22 A3003 RMK AO2 SLP158 T02940217
KCLT 111552Z VRB03KT 10SM FEW015 SCT130 SCT250 28/21 A3003 RMK AO2 SLP158 T02780211
KCLT 111519Z 00000KT 10SM SCT012 SCT100 BKN250 27/22 A3004 RMK AO2 T02670217
KCLT 111452Z 25004KT 8SM BKN011 BKN065 OVC250 26/21 A3004 RMK AO2 SLP163 T02560211 50008
KCLT 111424Z VRB03KT 8SM SCT007 BKN012 25/21 A3004 RMK AO2 T02500211
KCLT 111352Z 33003KT 6SM HZ OVC007 24/21 A3004 RMK AO2 SLP164 T02440211
KCLT 111252Z 00000KT 4SM BR OVC003 23/21 A3003 RMK AO2 SLP161 T02330211
KCLT 111152Z 20003KT 10SM OVC002 23/21 A3002 RMK AO2 SLP155 70004 T02280211 10239 20228 51013
KCLT 111052Z 20003KT 10SM OVC004 23/21 A3001 RMK AO2 SLP151 T02280211
KCLT 110952Z 17003KT 10SM OVC003 23/21 A3000 RMK AO2 SLP151 T02280211
KCLT 110852Z 00000KT 10SM OVC002 23/21 A2998 RMK AO2 SLP140 T02280211 56014
KCLT 110752Z 00000KT 10SM OVC004 23/21 A2998 RMK AO2 SLP140 T02280211
KCLT 110743Z 00000KT 10SM OVC004 23/21 A2998 RMK AO2 T02280211
KCLT 110652Z 17004KT 10SM OVC006 23/21 A2999 RMK AO2 SLP144 T02330211
KCLT 110629Z 20004KT 10SM OVC007 23/21 A3000 RMK AO2 T02330211
KCLT 110552Z 20005KT 10SM OVC008 24/21 A3002 RMK AO2 SLP155 T02390211 10272 20233 50003
KCLT 110526Z 19004KT 10SM BKN008 24/21 A3003 RMK AO2 T02390211
KCLT 110452Z 19004KT 10SM FEW110 23/21 A3003 RMK AO2 SLP160 T02330211 403440200
KCLT 110352Z 19005KT 10SM FEW090 24/21 A3003 RMK AO2 SLP157 T02390211
KCLT 110252Z 19008KT 10SM FEW090 24/21 A3001 RMK AO2 SLP152 LTG DSNT SE CB DSNT SE T02440206 51006
KCLT 110152Z 20004KT 10SM FEW095 24/21 A3001 RMK AO2 SLP153 T02440211
KCLT 110052Z 21005KT 10SM FEW095 FEW180 SCT250 25/21 A3000 RMK AO2 SLP148 LTG DSNT SE CB DSNT SE T02500211
KCLT 102352Z 00000KT 10SM FEW065 FEW090 SCT160 SCT250 27/22 A2999 RMK AO2 SLP147 CB DSNT SE 60004 T02720217 10344 20250 58001
KCLT 102252Z 00000KT 10SM FEW036 SCT065 BKN090 BKN160 27/23 A3000 RMK AO2 LTG DSNT N-E RAE29 TSE28E31 SLP151 TS N-NE AND W-NW DSPTD CB DSNT NE-E P0004 T02720228
KCLT 102232Z 29004KT 10SM VCTS FEW017 FEW049 BKN080 BKN160 27/22 A3000 RMK AO2 LTG DSNT NE AND E RAE29 TSE28E31 TS N-NE AND W-NW DSPTD CB DSNT NE-E P0004 T02670222
KCLT 102228Z 27003KT 10SM -RA FEW017 FEW049 BKN080 BKN160 27/21 A3000 RMK AO2 LTG DSNT NE AND E TSE28 TS N-NE AND W-NW DSPTD CB DSNT NE-E P0004 T02670206
KCLT 102152Z 23009G16KT 10SM -TSRA SCT060CB BKN080 BKN120 BKN250 26/21 A3000 RMK AO2 PK WND 19026/2111 LTG DSNT E AND SE RAB51 TSE23B27 SLP151 OCNL LTICCCCG W-NW AND N-NE TS W-NW AND N-NE MOV SLWLY SE P0000 T02610206
KCLT 102127Z COR 21014G21KT 10SM TS BKN060CB BKN075 BKN120 BKN250 28/20 A3001 RMK AO2 PK WND 19026/2111 LTG DSNT ALQDS TSE23B27 FRQ LTGICCCCG SW-W TS SW-W MOV SLWLY E CB S MOV SLWLY E TCU NE-SE T02780200
KCLT 102052Z VRB05KT 10SM SCT060TCU SCT080 BKN110 BKN250 34/18 A3000 RMK AO2 LTG DSNT E AND SW SLP147 CB DSNT NE AND E-SE AND SW TCU SE-S-W T03390183 56025
KCLT 101952Z VRB04KT 10SM FEW055 SCT250 34/16 A3000 RMK AO2 SLP148 CB DSNT SE-SW TCU DSNT NE-E AND S-SW T03440161
KCLT 101852Z VRB04KT 10SM FEW050 SCT250 33/17 A3003 RMK AO2 SLP160 TCU DSNT ALQDS T03330167